Prairieville, Missouri
Current Conditions -  °F | °C
As of 11:15 AM on Wednesday 26 Nov 2014 (Local Time) from KPPQ Reporting Station
Broken Clouds Broken Clouds  
Wind Chill: 24°   Ceiling: 4100
Heat Index: 33°   Visibility: 10mi
Dew Point: 29°   Wind: 12mph
Humidity: 87%   Direction: 120°ESE
Pressure: 30.01"   Gusts: NA
Location:  39.2534°N, 91.009°W
Report Text: KPPQ 261715Z AUTO 12010KT 10SM SCT017 SCT025 BKN041 01/M01 A3001 RMK AO2 T00051015 PWINO
Loading
Personal Weather Stations






























Interactive Weather Map New forecast layout! Learn more

10-Day Weather Forecast

Advertisements
Track Severe Weather on mobile